createdAt,value
2023-01-05T00:00:23.204Z,1.92
2023-01-05T00:00:57.337Z,2.15
2023-01-05T00:01:33.092Z,1.73
2023-01-05T00:02:07.258Z,2.00
2023-01-05T00:02:40.367Z,1.45
2023-01-05T00:03:15.275Z,1.60
2023-01-05T00:03:48.856Z,1.83
2023-01-05T00:04:23.225Z,1.85
2023-01-05T00:04:58.169Z,1.85
2023-01-05T00:05:31.759Z,1.63
2023-01-05T00:06:07.275Z,1.85
2023-01-05T00:06:42.453Z,1.75
2023-01-05T00:07:17.183Z,2.83
2023-01-05T00:07:50.387Z,2.40
2023-01-05T00:08:24.585Z,1.58
2023-01-05T00:08:58.791Z,1.83
2023-01-05T00:09:32.367Z,2.30
2023-01-05T00:10:29.151Z,1.48
2023-01-05T00:11:23.320Z,1.90
2023-01-05T00:12:15.848Z,1.85
2023-01-05T00:13:09.289Z,2.17
2023-01-05T00:14:01.562Z,2.10
2023-01-05T00:14:53.773Z,2.65
2023-01-05T00:15:45.502Z,2.90
2023-01-05T00:16:38.528Z,1.42
2023-01-05T00:17:31.458Z,2.00
2023-01-05T00:18:23.835Z,1.83
2023-01-05T00:19:15.912Z,1.50
2023-01-05T00:20:09.318Z,1.77
2023-01-05T00:21:01.084Z,1.80
2023-01-05T00:21:53.575Z,2.67
2023-01-05T00:22:34.423Z,1.58
2023-01-05T00:23:09.161Z,1.60
2023-01-05T00:23:44.726Z,2.63
2023-01-05T00:24:19.383Z,1.83
2023-01-05T00:24:56.430Z,1.98
2023-01-05T00:25:32.248Z,2.38
2023-01-05T00:26:08.038Z,2.30
2023-01-05T00:26:41.935Z,2.42
2023-01-05T00:27:17.263Z,2.17
2023-01-05T00:27:52.539Z,2.28
2023-01-05T00:28:27.354Z,5.43
2023-01-05T00:29:02.029Z,2.65
2023-01-05T00:29:37.330Z,2.63
2023-01-05T00:30:12.205Z,2.53
2023-01-05T00:30:48.169Z,2.50
2023-01-05T00:31:22.716Z,2.50
2023-01-05T00:31:58.699Z,2.33
2023-01-05T00:32:31.850Z,3.22
2023-01-05T00:33:05.421Z,1.52
2023-01-05T00:33:40.189Z,1.90
2023-01-05T00:34:15.236Z,2.13
2023-01-05T00:34:50.889Z,1.80
2023-01-05T00:35:25.756Z,1.85
2023-01-05T00:36:00.540Z,3.20
2023-01-05T00:36:34.710Z,1.92
2023-01-05T00:37:09.957Z,1.90
2023-01-05T00:37:43.943Z,1.85
2023-01-05T00:38:19.198Z,2.03
2023-01-05T00:38:54.592Z,1.75
2023-01-05T00:39:28.429Z,1.85
2023-01-05T00:40:04.283Z,1.88
2023-01-05T00:40:38.125Z,3.28
2023-01-05T00:41:13.485Z,1.77
2023-01-05T00:41:47.817Z,2.30
2023-01-05T00:42:21.711Z,2.95
2023-01-05T00:42:58.852Z,2.33
2023-01-05T00:43:32.552Z,3.50
2023-01-05T00:44:07.660Z,1.35
2023-01-05T00:44:42.986Z,1.77
2023-01-05T00:45:18.654Z,2.65
2023-01-05T00:45:53.600Z,2.53
2023-01-05T00:46:27.828Z,2.20
2023-01-05T00:47:02.576Z,2.80
2023-01-05T00:47:37.926Z,4.32
2023-01-05T00:48:11.001Z,3.10
2023-01-05T00:48:46.177Z,1.80
2023-01-05T00:49:19.968Z,3.45
2023-01-05T00:49:54.791Z,2.95
2023-01-05T00:50:28.905Z,2.28
2023-01-05T00:51:04.137Z,2.40
2023-01-05T00:51:39.180Z,7.05
2023-01-05T00:52:13.220Z,2.83
2023-01-05T00:52:48.911Z,1.88
2023-01-05T00:53:23.625Z,2.67
2023-01-05T00:53:58.960Z,2.53
2023-01-05T00:54:32.643Z,2.53
2023-01-05T00:55:05.736Z,2.05
2023-01-05T00:55:41.307Z,2.30
2023-01-05T00:56:14.697Z,4.30
2023-01-05T00:56:49.925Z,5.93
2023-01-05T00:57:24.912Z,4.38
2023-01-05T00:58:02.456Z,2.58
2023-01-05T00:58:36.796Z,2.25
2023-01-05T00:59:12.623Z,1.98
2023-01-05T00:59:45.736Z,2.75
2023-01-05T01:00:22.269Z,3.13
2023-01-05T01:00:57.083Z,3.42
2023-01-05T01:01:31.508Z,2.05
2023-01-05T01:02:06.061Z,2.63
2023-01-05T01:02:40.288Z,2.25
2023-01-05T01:03:13.627Z,3.22
2023-01-05T01:03:48.031Z,3.00
2023-01-05T01:04:23.037Z,2.53
2023-01-05T01:04:56.530Z,1.80
2023-01-05T01:05:31.457Z,2.55
2023-01-05T01:06:06.187Z,2.47
2023-01-05T01:06:40.551Z,2.50
2023-01-05T01:07:15.710Z,3.65
2023-01-05T01:07:50.860Z,2.10
2023-01-05T01:08:24.950Z,2.42
2023-01-05T01:09:00.788Z,3.92
2023-01-05T01:09:34.739Z,2.50
2023-01-05T01:10:10.144Z,3.72
2023-01-05T01:10:43.730Z,2.08
2023-01-05T01:11:17.565Z,2.17
2023-01-05T01:11:53.700Z,2.88
2023-01-05T01:12:28.075Z,2.70
2023-01-05T01:13:04.372Z,2.35
2023-01-05T01:13:39.635Z,2.20
2023-01-05T01:14:14.065Z,3.05
2023-01-05T01:14:49.488Z,3.20
2023-01-05T01:15:23.138Z,2.92
2023-01-05T01:15:56.921Z,2.20
2023-01-05T01:16:31.869Z,3.08
2023-01-05T01:17:06.392Z,3.28
2023-01-05T01:17:41.792Z,2.40
2023-01-05T01:18:16.427Z,6.57
2023-01-05T01:18:50.483Z,4.55
2023-01-05T01:19:25.919Z,2.70
2023-01-05T01:20:00.166Z,3.67
2023-01-05T01:20:35.745Z,2.15
2023-01-05T01:21:10.162Z,2.20
2023-01-05T01:21:43.467Z,2.22
2023-01-05T01:22:18.284Z,3.22
2023-01-05T01:22:51.428Z,1.95
2023-01-05T01:23:27.148Z,2.00
2023-01-05T01:24:02.031Z,2.72
2023-01-05T01:24:36.163Z,2.67
2023-01-05T01:25:11.788Z,2.50
2023-01-05T01:25:46.103Z,3.55
2023-01-05T01:26:20.479Z,2.30
2023-01-05T01:26:56.463Z,2.92
2023-01-05T01:27:30.912Z,3.72
2023-01-05T01:28:07.162Z,2.40
2023-01-05T01:28:41.599Z,2.45
2023-01-05T01:29:18.013Z,3.65
2023-01-05T01:29:54.574Z,2.45
2023-01-05T01:30:29.013Z,3.35
2023-01-05T01:31:02.433Z,2.38
2023-01-05T01:31:35.865Z,2.47
2023-01-05T01:32:10.646Z,3.17
2023-01-05T01:32:46.146Z,2.53
2023-01-05T01:33:19.740Z,3.25
2023-01-05T01:33:54.405Z,2.65
2023-01-05T01:34:28.783Z,3.20
2023-01-05T01:35:02.853Z,2.72
2023-01-05T01:35:39.901Z,3.17
2023-01-05T01:36:14.018Z,2.65
2023-01-05T01:36:49.288Z,4.07
2023-01-05T01:38:03.285Z,2.55
2023-01-05T01:38:39.082Z,2.42
2023-01-05T01:39:13.278Z,2.88
2023-01-05T01:39:51.510Z,2.83
2023-01-05T01:40:25.717Z,4.38
2023-01-05T01:40:58.793Z,2.63
2023-01-05T01:41:33.893Z,3.33
2023-01-05T01:42:13.049Z,5.20
2023-01-05T01:42:49.513Z,4.00
2023-01-05T01:43:37.776Z,3.78
2023-01-05T01:44:26.152Z,3.67
2023-01-05T01:45:02.871Z,4.82
2023-01-05T01:45:38.575Z,3.63
2023-01-05T01:46:13.877Z,7.20
2023-01-05T01:46:48.187Z,4.78
2023-01-05T01:47:26.444Z,5.65
2023-01-05T01:48:01.566Z,5.50
2023-01-05T01:48:37.379Z,6.63
2023-01-05T01:49:12.207Z,5.25
2023-01-05T01:49:46.499Z,4.53
2023-01-05T01:50:21.220Z,4.20
2023-01-05T01:50:56.336Z,7.53
2023-01-05T01:51:32.136Z,6.63
2023-01-05T01:52:08.973Z,5.22
2023-01-05T01:52:43.742Z,6.35
2023-01-05T01:53:21.400Z,4.90
2023-01-05T01:53:58.011Z,4.63
2023-01-05T01:54:31.674Z,5.78
2023-01-05T01:55:08.516Z,5.25
2023-01-05T01:55:42.877Z,5.78
2023-01-05T01:56:18.242Z,5.00
2023-01-05T01:56:54.396Z,5.57
2023-01-05T01:57:27.897Z,6.88
2023-01-05T01:58:03.659Z,6.50
2023-01-05T01:58:36.971Z,7.38
2023-01-05T01:59:10.975Z,5.82
2023-01-05T01:59:45.786Z,5.38
2023-01-05T02:00:21.698Z,6.38
2023-01-05T02:01:03.991Z,6.32
2023-01-05T02:01:37.875Z,5.20
2023-01-05T02:02:12.889Z,6.00
2023-01-05T02:02:48.479Z,5.93
2023-01-05T02:03:26.042Z,6.72
2023-01-05T02:04:02.279Z,6.88
2023-01-05T02:04:39.288Z,7.20
2023-01-05T02:05:14.132Z,5.97
2023-01-05T02:05:49.329Z,5.95
2023-01-05T02:06:22.868Z,6.75
2023-01-05T02:06:56.588Z,5.28
2023-01-05T02:07:32.011Z,5.10
2023-01-05T02:08:06.016Z,5.30
2023-01-05T02:08:40.659Z,7.78
2023-01-05T02:09:14.300Z,7.30
2023-01-05T02:09:47.633Z,5.95
2023-01-05T02:10:29.048Z,4.70
2023-01-05T02:11:11.364Z,5.15
2023-01-05T02:11:50.619Z,6.00
2023-01-05T02:12:33.622Z,5.30
2023-01-05T02:13:19.165Z,6.30
2023-01-05T02:14:18.433Z,4.75
2023-01-05T02:14:59.441Z,6.25
2023-01-05T02:15:41.105Z,4.88
2023-01-05T02:16:22.324Z,5.00
2023-01-05T02:17:03.131Z,7.07
2023-01-05T02:17:42.602Z,5.05
2023-01-05T02:18:22.271Z,6.53
2023-01-05T02:19:00.651Z,6.10
2023-01-05T02:20:03.583Z,5.05
2023-01-05T02:20:52.875Z,5.25
2023-01-05T02:21:30.581Z,6.10
2023-01-05T02:22:16.103Z,6.00
2023-01-05T02:23:07.297Z,6.45
2023-01-05T02:23:47.323Z,6.40
2023-01-05T02:24:49.622Z,5.32
2023-01-05T02:25:34.146Z,5.45
2023-01-05T02:26:23.474Z,7.13
2023-01-05T02:27:22.748Z,5.50
2023-01-05T02:28:01.866Z,6.43
2023-01-05T02:28:45.908Z,5.13
2023-01-05T02:29:41.485Z,6.38
2023-01-05T02:30:33.836Z,5.38
2023-01-05T02:31:13.614Z,7.70
2023-01-05T02:31:56.677Z,5.60
2023-01-05T02:32:35.015Z,6.30
2023-01-05T02:33:14.079Z,6.93
2023-01-05T02:34:11.491Z,7.18
2023-01-05T02:34:50.967Z,5.28
2023-01-05T02:35:28.499Z,7.78
2023-01-05T02:36:05.909Z,6.20
2023-01-05T02:36:44.272Z,6.70
2023-01-05T02:37:21.690Z,6.60
2023-01-05T02:38:00.391Z,6.78
2023-01-05T02:38:37.096Z,6.57
2023-01-05T02:39:15.441Z,8.38
2023-01-05T02:39:52.173Z,6.88
2023-01-05T02:40:28.903Z,8.50
2023-01-05T02:41:08.763Z,6.00
2023-01-05T02:41:48.399Z,6.57
2023-01-05T02:42:25.459Z,6.43
2023-01-05T02:43:01.625Z,6.63
2023-01-05T02:43:35.805Z,6.03
2023-01-05T02:44:12.390Z,10.90
2023-01-05T02:44:45.959Z,6.65
2023-01-05T02:45:19.094Z,8.65
2023-01-05T02:45:53.295Z,9.68
2023-01-05T02:46:28.972Z,6.07
2023-01-05T02:47:05.437Z,8.10
2023-01-05T02:47:43.508Z,7.90
2023-01-05T02:48:18.142Z,5.93
2023-01-05T02:48:54.244Z,6.43
2023-01-05T02:49:29.444Z,7.32
2023-01-05T02:50:05.078Z,6.60
2023-01-05T02:50:43.386Z,6.75
2023-01-05T02:51:20.445Z,7.47
2023-01-05T02:51:57.618Z,6.60
2023-01-05T02:52:34.664Z,7.65
2023-01-05T02:53:09.470Z,7.82
2023-01-05T02:53:47.211Z,7.45
2023-01-05T02:54:24.177Z,8.18
2023-01-05T02:55:02.120Z,7.32
2023-01-05T02:55:38.629Z,7.68
2023-01-05T02:56:14.804Z,6.55
2023-01-05T02:56:53.462Z,7.45
2023-01-05T02:57:43.291Z,10.07
2023-01-05T02:58:19.463Z,7.30
2023-01-05T02:58:58.743Z,7.38
2023-01-05T02:59:35.157Z,7.22
2023-01-05T03:00:12.153Z,6.32
2023-01-05T03:00:51.407Z,6.20
2023-01-05T03:01:31.443Z,6.97
2023-01-05T03:02:08.373Z,6.57
2023-01-05T03:02:44.718Z,7.72
2023-01-05T03:03:21.316Z,7.30
2023-01-05T03:03:58.332Z,6.80
2023-01-05T03:04:35.270Z,8.55
2023-01-05T03:05:12.155Z,8.63
2023-01-05T03:05:49.518Z,7.72
2023-01-05T03:06:25.929Z,8.00
2023-01-05T03:07:00.822Z,7.25
2023-01-05T03:07:39.927Z,10.95
2023-01-05T03:08:29.128Z,7.93
2023-01-05T03:09:09.546Z,8.80
2023-01-05T03:09:44.479Z,8.13
2023-01-05T03:10:38.761Z,7.60
2023-01-05T03:11:31.014Z,7.88
2023-01-05T03:12:26.151Z,10.13
2023-01-05T03:13:19.908Z,8.63
2023-01-05T03:13:57.095Z,8.00
2023-01-05T03:14:33.365Z,9.60
2023-01-05T03:15:11.214Z,9.13
2023-01-05T03:15:47.480Z,10.75
2023-01-05T03:16:24.367Z,9.40
2023-01-05T03:17:04.225Z,11.23
2023-01-05T03:17:42.261Z,9.52
2023-01-05T03:18:18.938Z,10.20
2023-01-05T03:19:14.828Z,11.88
2023-01-05T03:19:50.576Z,9.70
2023-01-05T03:20:25.522Z,9.60
2023-01-05T03:21:03.024Z,9.05
2023-01-05T03:21:55.185Z,11.82
2023-01-05T03:22:49.396Z,8.98
2023-01-05T03:23:41.814Z,9.52
2023-01-05T03:24:34.408Z,10.18
2023-01-05T03:25:28.372Z,12.18
2023-01-05T03:26:22.620Z,9.75
2023-01-05T03:27:15.675Z,11.95
2023-01-05T03:28:07.586Z,9.10
2023-01-05T03:29:01.055Z,9.65
2023-01-05T03:29:58.456Z,27.13
2023-01-05T03:30:54.614Z,9.50
2023-01-05T03:31:51.332Z,8.88
2023-01-05T03:32:47.185Z,9.50
2023-01-05T03:33:43.109Z,8.25
2023-01-05T03:34:37.824Z,6.32
2023-01-05T03:35:33.710Z,9.18
2023-01-05T03:36:10.565Z,7.68
2023-01-05T03:36:50.357Z,7.38
2023-01-05T03:37:25.650Z,9.23
2023-01-05T03:38:00.847Z,7.13
2023-01-05T03:38:39.466Z,9.02
2023-01-05T03:39:13.408Z,7.65
2023-01-05T03:39:49.940Z,6.75
2023-01-05T03:40:25.842Z,7.13
2023-01-05T03:41:02.974Z,8.85
2023-01-05T03:41:38.835Z,7.47
2023-01-05T03:42:13.468Z,7.13
2023-01-05T03:42:47.487Z,7.57
2023-01-05T03:43:23.819Z,8.65
2023-01-05T03:43:58.025Z,8.00
2023-01-05T03:44:33.139Z,7.10
2023-01-05T03:45:07.784Z,6.70
2023-01-05T03:45:43.316Z,6.57
2023-01-05T03:46:25.844Z,8.30
2023-01-05T03:47:00.673Z,9.85
2023-01-05T03:47:35.441Z,7.88
2023-01-05T03:48:10.310Z,9.45
2023-01-05T03:48:43.328Z,7.93
2023-01-05T03:49:18.430Z,10.02
2023-01-05T03:49:52.746Z,6.82
2023-01-05T03:50:26.809Z,7.63
2023-01-05T03:51:02.229Z,7.75
2023-01-05T03:51:41.463Z,8.75
2023-01-05T03:52:16.590Z,7.78
2023-01-05T03:52:50.726Z,10.32
2023-01-05T03:53:24.375Z,11.40
2023-01-05T03:53:59.694Z,8.45
2023-01-05T03:54:37.746Z,9.43
2023-01-05T03:55:11.535Z,7.43
2023-01-05T03:55:48.341Z,9.23
2023-01-05T03:56:22.394Z,8.27
2023-01-05T03:56:56.100Z,9.05
2023-01-05T03:57:30.942Z,9.25
2023-01-05T03:58:06.213Z,8.00
2023-01-05T03:58:40.357Z,9.45
2023-01-05T03:59:15.240Z,7.82
2023-01-05T03:59:50.253Z,9.93
2023-01-05T04:00:25.791Z,8.00
2023-01-05T04:01:08.707Z,9.02
2023-01-05T04:01:45.841Z,7.88
2023-01-05T04:02:21.756Z,8.38
2023-01-05T04:02:58.203Z,9.65
2023-01-05T04:03:33.698Z,6.95
2023-01-05T04:04:10.750Z,6.93
2023-01-05T04:04:45.245Z,9.65
2023-01-05T04:05:18.877Z,7.40
2023-01-05T04:05:53.212Z,10.10
2023-01-05T04:06:28.975Z,8.18
2023-01-05T04:07:03.245Z,8.90
2023-01-05T04:07:40.271Z,9.07
2023-01-05T04:08:14.547Z,9.52
2023-01-05T04:08:49.537Z,7.63
2023-01-05T04:09:23.764Z,8.88
2023-01-05T04:09:57.918Z,10.95
2023-01-05T04:10:33.586Z,9.90
2023-01-05T04:11:16.506Z,11.30
2023-01-05T04:11:56.700Z,6.68
2023-01-05T04:12:31.046Z,10.27
2023-01-05T04:13:05.077Z,8.65
2023-01-05T04:13:40.920Z,7.82
2023-01-05T04:14:15.285Z,9.23
2023-01-05T04:14:49.328Z,8.38
2023-01-05T04:15:25.675Z,12.32
2023-01-05T04:16:01.253Z,8.88
2023-01-05T04:16:34.359Z,9.73
2023-01-05T04:17:16.277Z,10.10
2023-01-05T04:17:50.471Z,10.48
2023-01-05T04:18:26.099Z,9.02
2023-01-05T04:18:59.911Z,7.50
2023-01-05T04:19:32.890Z,6.72
2023-01-05T04:20:09.299Z,8.80
2023-01-05T04:20:43.843Z,7.85
2023-01-05T04:21:20.284Z,9.30
2023-01-05T04:21:57.232Z,10.30
2023-01-05T04:22:32.360Z,9.40
2023-01-05T04:23:07.159Z,8.70
2023-01-05T04:23:42.677Z,7.32
2023-01-05T04:24:16.765Z,8.73
2023-01-05T04:24:52.922Z,7.72
2023-01-05T04:25:28.170Z,6.85
2023-01-05T04:26:42.260Z,6.68
2023-01-05T04:27:17.246Z,25.17
2023-01-05T04:27:50.137Z,8.70
2023-01-05T04:28:25.886Z,7.80
2023-01-05T04:29:04.010Z,8.35
2023-01-05T04:29:40.011Z,9.70
2023-01-05T04:30:16.339Z,8.02
2023-01-05T04:30:51.558Z,7.78
2023-01-05T04:31:26.711Z,10.15
2023-01-05T04:32:04.465Z,8.40
2023-01-05T04:32:38.932Z,8.45
2023-01-05T04:33:17.977Z,8.38
2023-01-05T04:33:53.662Z,7.80
2023-01-05T04:34:30.148Z,8.65
2023-01-05T04:35:10.967Z,7.82
2023-01-05T04:35:48.942Z,7.22
2023-01-05T04:36:23.523Z,8.70
2023-01-05T04:36:57.205Z,8.48
2023-01-05T04:37:32.554Z,9.60
2023-01-05T04:38:07.166Z,7.93
2023-01-05T04:38:40.775Z,6.50
2023-01-05T04:39:17.057Z,7.20
2023-01-05T04:39:50.866Z,8.60
2023-01-05T04:40:24.359Z,9.00
2023-01-05T04:41:02.041Z,6.88
2023-01-05T04:41:35.487Z,8.13
2023-01-05T04:42:10.211Z,9.07
2023-01-05T04:42:45.397Z,8.93
2023-01-05T04:43:20.493Z,7.18
2023-01-05T04:43:56.999Z,7.90
2023-01-05T04:44:31.311Z,8.88
2023-01-05T04:45:09.555Z,6.95
2023-01-05T04:45:45.823Z,7.60
2023-01-05T04:46:21.195Z,8.65
2023-01-05T04:46:56.731Z,6.95
2023-01-05T04:47:31.576Z,11.27
2023-01-05T04:48:06.532Z,7.00
2023-01-05T04:48:40.727Z,6.95
2023-01-05T04:49:17.386Z,7.30
2023-01-05T04:49:53.313Z,8.40
2023-01-05T04:50:30.302Z,9.00
2023-01-05T04:51:04.811Z,7.72
2023-01-05T04:51:42.670Z,7.80
2023-01-05T04:52:17.769Z,6.95
2023-01-05T04:52:52.484Z,7.05
2023-01-05T04:53:27.503Z,8.27
2023-01-05T04:54:02.907Z,7.10
2023-01-05T04:54:38.585Z,6.43
2023-01-05T04:55:14.729Z,8.00
2023-01-05T04:55:50.946Z,9.60
2023-01-05T04:56:26.467Z,8.30
2023-01-05T04:56:59.611Z,10.68
2023-01-05T04:57:34.695Z,8.70
2023-01-05T04:58:11.990Z,7.97
2023-01-05T04:58:47.896Z,8.02
2023-01-05T04:59:22.670Z,9.60
2023-01-05T04:59:58.635Z,11.88
2023-01-05T05:00:34.025Z,11.68
2023-01-05T05:01:09.410Z,7.15
2023-01-05T05:01:44.867Z,8.52
2023-01-05T05:02:22.163Z,8.55
2023-01-05T05:02:59.033Z,9.75
2023-01-05T05:03:34.695Z,8.35
2023-01-05T05:04:11.350Z,12.88
2023-01-05T05:04:47.765Z,11.48
2023-01-05T05:05:21.538Z,11.00
2023-01-05T05:05:59.381Z,10.20
2023-01-05T05:06:34.728Z,12.93
2023-01-05T05:07:09.272Z,12.40
2023-01-05T05:07:44.738Z,11.05
2023-01-05T05:08:20.090Z,14.88
2023-01-05T05:08:55.000Z,12.80
2023-01-05T05:09:30.962Z,14.68
2023-01-05T05:10:06.449Z,12.43
2023-01-05T05:10:40.648Z,9.68
2023-01-05T05:11:16.700Z,14.52
2023-01-05T05:11:53.089Z,47.17
2023-01-05T05:12:29.490Z,14.32
2023-01-05T05:13:04.847Z,11.65
2023-01-05T05:13:39.200Z,10.02
2023-01-05T05:14:13.936Z,11.48
2023-01-05T05:14:49.584Z,14.85
2023-01-05T05:15:24.026Z,15.05
2023-01-05T05:15:58.317Z,14.70
2023-01-05T05:16:35.249Z,15.50
2023-01-05T05:17:11.517Z,17.10
2023-01-05T05:17:45.419Z,18.85
2023-01-05T05:18:22.296Z,17.27
2023-01-05T05:18:58.253Z,16.92
2023-01-05T05:19:34.808Z,13.30
2023-01-05T05:20:12.696Z,15.43
2023-01-05T05:20:49.569Z,14.25
2023-01-05T05:21:24.139Z,13.75
2023-01-05T05:21:58.367Z,13.82
2023-01-05T05:22:33.566Z,13.30
2023-01-05T05:23:09.859Z,13.32
2023-01-05T05:23:44.046Z,13.05
2023-01-05T05:24:18.891Z,10.48
2023-01-05T05:24:53.590Z,12.20
2023-01-05T05:25:26.871Z,10.02
2023-01-05T05:26:02.010Z,12.35
2023-01-05T05:26:36.669Z,10.98
2023-01-05T05:27:11.419Z,11.77
2023-01-05T05:27:44.996Z,11.25
2023-01-05T05:28:19.914Z,11.00
2023-01-05T05:28:55.524Z,13.18
2023-01-05T05:29:29.379Z,12.95
2023-01-05T05:30:03.058Z,10.98
2023-01-05T05:30:38.096Z,11.27
2023-01-05T05:31:12.338Z,11.32
2023-01-05T05:31:46.123Z,9.65
2023-01-05T05:32:21.590Z,9.82
2023-01-05T05:32:55.682Z,9.90
2023-01-05T05:33:30.279Z,9.35
2023-01-05T05:34:05.720Z,10.05
2023-01-05T05:34:40.012Z,7.13
2023-01-05T05:35:16.415Z,9.32
2023-01-05T05:35:51.209Z,8.30
2023-01-05T05:36:25.483Z,10.07
2023-01-05T05:37:00.174Z,8.23
2023-01-05T05:37:34.341Z,8.30
2023-01-05T05:38:10.120Z,11.00
2023-01-05T05:38:43.434Z,8.68
2023-01-05T05:39:18.382Z,9.10
2023-01-05T05:39:53.982Z,7.57
2023-01-05T05:40:29.008Z,11.52
2023-01-05T05:41:03.102Z,8.80
2023-01-05T05:41:38.065Z,9.38
2023-01-05T05:42:12.882Z,9.32
2023-01-05T05:42:56.490Z,9.13
2023-01-05T05:43:31.134Z,10.40
2023-01-05T05:44:07.745Z,8.30
2023-01-05T05:44:47.375Z,7.95
2023-01-05T05:45:23.276Z,8.52
2023-01-05T05:46:00.282Z,7.75
2023-01-05T05:46:34.816Z,9.98
2023-01-05T05:47:09.514Z,9.25
2023-01-05T05:47:44.359Z,10.50
2023-01-05T05:48:19.756Z,10.95
2023-01-05T05:48:56.423Z,10.10
2023-01-05T05:49:33.599Z,9.02
2023-01-05T05:50:10.476Z,10.65
2023-01-05T05:50:47.244Z,8.60
2023-01-05T05:51:21.524Z,7.80
2023-01-05T05:51:55.677Z,9.45
2023-01-05T05:52:32.647Z,9.23
2023-01-05T05:53:12.477Z,10.20
2023-01-05T05:53:48.647Z,8.10
2023-01-05T05:54:23.643Z,7.60
2023-01-05T05:54:58.535Z,7.40
2023-01-05T05:55:31.585Z,7.70
2023-01-05T05:56:08.025Z,10.73
2023-01-05T05:56:41.703Z,7.65
2023-01-05T05:57:18.210Z,7.75
2023-01-05T05:57:52.432Z,8.10
2023-01-05T05:58:26.819Z,10.73
2023-01-05T05:59:01.762Z,6.05
2023-01-05T05:59:37.097Z,8.13
2023-01-05T06:00:12.987Z,22.63
2023-01-05T06:00:49.440Z,8.15
2023-01-05T06:01:24.296Z,6.38
2023-01-05T06:01:58.144Z,10.18
2023-01-05T06:02:31.965Z,6.47
2023-01-05T06:03:07.324Z,9.18
2023-01-05T06:03:41.213Z,7.13
2023-01-05T06:04:15.568Z,8.48
2023-01-05T06:04:51.185Z,7.88
2023-01-05T06:05:25.282Z,9.02
2023-01-05T06:06:03.020Z,7.15
2023-01-05T06:06:39.009Z,6.00
2023-01-05T06:07:15.091Z,10.93
2023-01-05T06:07:48.768Z,8.82
2023-01-05T06:08:24.723Z,6.88
2023-01-05T06:08:58.890Z,6.68
2023-01-05T06:09:32.999Z,6.38
2023-01-05T06:10:09.013Z,7.40
2023-01-05T06:10:42.707Z,7.15
2023-01-05T06:11:18.166Z,9.75
2023-01-05T06:11:51.355Z,8.35
2023-01-05T06:12:24.588Z,10.10
2023-01-05T06:12:59.379Z,10.25
2023-01-05T06:13:33.458Z,9.68
2023-01-05T06:14:07.119Z,14.05
2023-01-05T06:14:42.284Z,8.40
2023-01-05T06:15:17.326Z,10.23
2023-01-05T06:15:51.675Z,10.18
2023-01-05T06:16:27.205Z,10.35
2023-01-05T06:17:01.479Z,8.65
2023-01-05T06:17:35.626Z,14.35
2023-01-05T06:18:10.068Z,8.43
2023-01-05T06:18:43.203Z,8.43
2023-01-05T06:19:16.595Z,10.35
2023-01-05T06:19:51.629Z,10.15
2023-01-05T06:20:25.172Z,12.70
2023-01-05T06:21:02.085Z,10.02
2023-01-05T06:21:36.378Z,11.50
2023-01-05T06:22:10.420Z,7.93
2023-01-05T06:22:45.777Z,8.80
2023-01-05T06:23:20.093Z,10.35
2023-01-05T06:23:56.031Z,10.15
2023-01-05T06:24:29.606Z,11.85
2023-01-05T06:25:04.354Z,8.52
2023-01-05T06:25:37.932Z,8.88
2023-01-05T06:26:12.691Z,10.57
2023-01-05T06:26:47.399Z,9.27
2023-01-05T06:27:21.110Z,9.93
2023-01-05T06:27:55.624Z,12.43
2023-01-05T06:28:30.270Z,10.18
2023-01-05T06:29:04.395Z,8.38
2023-01-05T06:29:40.268Z,9.15
2023-01-05T06:30:15.937Z,9.02
2023-01-05T06:30:50.775Z,10.40
2023-01-05T06:31:25.806Z,10.30
2023-01-05T06:32:01.101Z,8.82
2023-01-05T06:32:35.053Z,10.00
2023-01-05T06:33:09.511Z,7.65
2023-01-05T06:33:44.532Z,8.48
2023-01-05T06:34:18.941Z,8.85
2023-01-05T06:34:52.253Z,9.38
2023-01-05T06:35:26.982Z,10.68
2023-01-05T06:36:02.015Z,9.85
2023-01-05T06:36:36.523Z,8.70
2023-01-05T06:37:11.727Z,8.18
2023-01-05T06:37:45.154Z,10.00
2023-01-05T06:38:21.986Z,8.95
2023-01-05T06:38:55.365Z,9.57
2023-01-05T06:39:30.077Z,9.02
2023-01-05T06:40:04.753Z,8.93
2023-01-05T06:40:40.604Z,10.32
2023-01-05T06:41:16.433Z,7.70
2023-01-05T06:41:50.778Z,9.88
2023-01-05T06:42:25.564Z,7.90
2023-01-05T06:42:59.747Z,9.50
2023-01-05T06:43:36.402Z,8.35
2023-01-05T06:44:11.361Z,9.35
2023-01-05T06:44:47.233Z,11.00
2023-01-05T06:45:22.489Z,9.55
2023-01-05T06:45:59.296Z,9.13
2023-01-05T06:46:34.585Z,8.85
2023-01-05T06:47:08.676Z,9.98
2023-01-05T06:47:43.018Z,8.13
2023-01-05T06:48:18.203Z,8.68
2023-01-05T06:48:52.449Z,8.13
2023-01-05T06:49:25.892Z,10.38
2023-01-05T06:50:00.876Z,9.38
2023-01-05T06:50:34.545Z,8.13
2023-01-05T06:51:10.158Z,12.02
2023-01-05T06:51:44.576Z,7.53
2023-01-05T06:52:20.342Z,8.75
2023-01-05T06:52:54.495Z,9.13
2023-01-05T06:53:29.110Z,9.90
2023-01-05T06:54:04.367Z,8.27
2023-01-05T06:54:37.884Z,9.45
2023-01-05T06:55:12.271Z,8.57
2023-01-05T06:55:47.468Z,8.75
2023-01-05T06:56:22.468Z,7.85
2023-01-05T06:56:56.693Z,7.38
2023-01-05T06:57:30.690Z,8.40
2023-01-05T06:58:05.627Z,6.78
2023-01-05T06:58:40.204Z,6.85
2023-01-05T06:59:15.450Z,8.00
2023-01-05T06:59:49.702Z,11.63
2023-01-05T07:00:24.615Z,9.20
2023-01-05T07:01:00.456Z,8.55
2023-01-05T07:01:34.692Z,11.27
2023-01-05T07:02:14.295Z,8.68
2023-01-05T07:02:49.657Z,8.35
2023-01-05T07:03:25.057Z,8.60
2023-01-05T07:03:58.619Z,9.85
2023-01-05T07:04:34.633Z,9.68
2023-01-05T07:05:09.007Z,9.65
2023-01-05T07:05:42.802Z,8.13
2023-01-05T07:06:19.069Z,9.52
2023-01-05T07:06:53.773Z,10.50
2023-01-05T07:07:28.233Z,9.43
2023-01-05T07:08:03.482Z,8.35
2023-01-05T07:08:37.285Z,9.10
2023-01-05T07:09:11.884Z,10.85
2023-01-05T07:09:49.940Z,7.97
2023-01-05T07:10:24.728Z,8.45
2023-01-05T07:11:00.121Z,9.05
2023-01-05T07:11:33.799Z,7.95
2023-01-05T07:12:09.584Z,7.70
2023-01-05T07:12:44.885Z,10.35
2023-01-05T07:13:19.972Z,10.90
2023-01-05T07:13:53.546Z,9.57
2023-01-05T07:14:27.833Z,7.45
2023-01-05T07:15:02.662Z,8.88
2023-01-05T07:15:36.661Z,7.85
2023-01-05T07:16:10.945Z,8.88
2023-01-05T07:16:45.663Z,9.50
2023-01-05T07:17:19.552Z,8.85
2023-01-05T07:17:54.175Z,10.55
2023-01-05T07:18:28.556Z,7.97
2023-01-05T07:19:03.280Z,11.63
2023-01-05T07:19:37.254Z,9.27
2023-01-05T07:20:11.973Z,12.68
2023-01-05T07:20:47.067Z,8.50
2023-01-05T07:21:22.560Z,10.40
2023-01-05T07:21:57.283Z,14.68
2023-01-05T07:22:31.158Z,9.80
2023-01-05T07:23:06.995Z,9.27
2023-01-05T07:23:40.556Z,8.60
2023-01-05T07:24:14.351Z,8.48
2023-01-05T07:24:50.028Z,10.07
2023-01-05T07:25:23.672Z,10.65
2023-01-05T07:25:59.091Z,10.57
2023-01-05T07:26:33.236Z,9.77
2023-01-05T07:27:09.918Z,9.13
2023-01-05T07:27:44.927Z,11.82
2023-01-05T07:28:18.579Z,11.13
2023-01-05T07:28:53.862Z,8.90
2023-01-05T07:29:27.387Z,8.30
2023-01-05T07:30:01.070Z,8.88
2023-01-05T07:30:35.380Z,8.23
2023-01-05T07:31:08.575Z,11.35
2023-01-05T07:31:42.296Z,8.73
2023-01-05T07:32:17.582Z,8.35
2023-01-05T07:32:50.735Z,10.13
2023-01-05T07:33:26.223Z,7.65
2023-01-05T07:33:59.806Z,8.85
2023-01-05T07:34:34.695Z,7.57
2023-01-05T07:35:09.806Z,9.10
2023-01-05T07:35:44.529Z,10.07
2023-01-05T07:36:18.662Z,11.10
2023-01-05T07:36:54.437Z,9.15
2023-01-05T07:37:29.078Z,9.63
2023-01-05T07:38:05.458Z,9.82
2023-01-05T07:38:39.745Z,7.90
2023-01-05T07:39:14.242Z,9.75
2023-01-05T07:39:49.611Z,8.40
2023-01-05T07:40:23.184Z,9.65
2023-01-05T07:40:59.686Z,10.68
2023-01-05T07:41:34.453Z,9.82
2023-01-05T07:42:09.081Z,9.32
2023-01-05T07:42:44.917Z,8.57
2023-01-05T07:43:18.684Z,9.77
2023-01-05T07:43:52.135Z,8.88
2023-01-05T07:44:26.525Z,17.98
2023-01-05T07:45:00.102Z,10.13
2023-01-05T07:45:36.036Z,8.85
2023-01-05T07:46:10.919Z,12.18
2023-01-05T07:46:44.454Z,11.57
2023-01-05T07:47:20.186Z,9.77
2023-01-05T07:47:53.787Z,11.02
2023-01-05T07:48:30.134Z,8.45
2023-01-05T07:49:04.927Z,9.77
2023-01-05T07:49:39.733Z,10.50
2023-01-05T07:50:14.922Z,11.73
2023-01-05T07:50:49.665Z,14.25
2023-01-05T07:51:24.349Z,11.18
2023-01-05T07:52:01.554Z,9.80
2023-01-05T07:52:35.275Z,8.95
2023-01-05T07:53:09.752Z,11.18
2023-01-05T07:53:45.574Z,14.63
2023-01-05T07:54:22.301Z,13.57
2023-01-05T07:54:59.041Z,10.98
2023-01-05T07:55:33.316Z,13.15
2023-01-05T07:56:09.055Z,11.75
2023-01-05T07:56:46.944Z,11.18
2023-01-05T07:57:22.638Z,10.60
2023-01-05T07:57:56.889Z,13.73
2023-01-05T07:58:32.464Z,10.77
2023-01-05T07:59:05.844Z,9.80
2023-01-05T07:59:39.380Z,12.35
2023-01-05T08:00:15.728Z,11.00
2023-01-05T08:00:51.114Z,16.13
2023-01-05T08:01:26.606Z,15.30
2023-01-05T08:02:00.811Z,12.00
2023-01-05T08:02:36.735Z,11.60
2023-01-05T08:03:11.494Z,11.18
2023-01-05T08:03:47.909Z,10.73
2023-01-05T08:04:22.296Z,10.90
2023-01-05T08:04:56.777Z,10.35